Usk, WA (99180)

5:53 PM PDT on June 03, 2015 (GMT -0700)
RAWS | | Change Station
CLOSE
Current Station
Personal Weather Station
Location: Cusick, WA
Elevation: 2450 ft
Nearby Weather Stations

Elev 2450 ft 48.42 °N, 117.36 °W | Updated 58 minutes ago

Mostly Cloudy
Mostly Cloudy
61 °F
Feels Like 61 °F
N
1
Wind Variable Wind from SSW
Gusts 10.0 mph

Today
High -- | Low -- °F
--% Chance of Precip.
Yesterday
High -- | Low -- °F
Precip. -- in
4:51 AM 8:43 PM
Full, 98% visible
Pressure 29.94 in
Visibility 10.0 miles
Clouds Few 7000 ft
Mostly Cloudy 9500 ft
Dew Point 48 °F
Humidity 64%
Rainfall in
Snow Depth Not available.
UV 2 out of 12
Pollen 6.50 out of 12
Air Quality Not available.
Flu Activity Sporadic
METAR KDEW 032353Z AUTO 17008KT 10SM FEW070 BKN095 18/08 A2994 RMK AO2 SLP139 6//// T01830078 10189 20144 58011

More Conditions Fewer Conditions

Pressure 29.94 in
Visibility 10.0 miles
Clouds Few 7000 ft
Mostly Cloudy 9500 ft
Dew Point 48 °F
Humidity 64%
Rainfall in
Snow Depth Not available.
UV 2 out of 12
Pollen 6.50 out of 12
Air Quality Not available.
Flu Activity Sporadic
METAR KDEW 032353Z AUTO 17008KT 10SM FEW070 BKN095 18/08 A2994 RMK AO2 SLP139 6//// T01830078 10189 20144 58011

More Conditions Fewer Conditions

10-Day Weather Forecast

×

Almanac

Astronomy

Jun. 03, 2015 Rise Set
Actual Time
Civil Twilight
Nautical Twilight
Astronomical Twilight
Moon
Length of Visible Light
Length of Day
Tomorrow will be .
, % of the Moon is Illuminated

Today's Extremes

State Highs State Lows

Community

WunderPhotos

Upload Photos

1,826,325 photos uploaded!

WunderBlogs® & News

Nearby

Air Quality

  Air Quality AQ Index Pollutant
Not available.

Snow Depth

Station Depth Elevation

Earthquake Activity

City Distance Mag. Time & Date
Minimum magnitude displayed is 2.5.

Coastal Water Temperatures

Place Temperature

Stations

Nearby Weather Stations

Station Location Temp. Windchill Dew Point Humidity Wind Precip. Elev Updated Type